createdAt,value
2018-07-22T00:00:46.890Z,19.60
2018-07-22T00:03:16.230Z,19.60
2018-07-22T00:05:45.591Z,19.80
2018-07-22T00:08:14.934Z,19.80
2018-07-22T00:10:44.282Z,19.80
2018-07-22T00:13:13.651Z,19.80
2018-07-22T00:15:43.051Z,19.90
2018-07-22T00:18:12.394Z,19.80
2018-07-22T00:20:41.868Z,19.80
2018-07-22T00:23:11.270Z,19.60
2018-07-22T00:25:40.968Z,19.60
2018-07-22T00:28:10.274Z,19.50
2018-07-22T00:30:39.746Z,19.60
2018-07-22T00:33:09.088Z,19.70
2018-07-22T00:35:38.442Z,19.70
2018-07-22T00:40:36.765Z,19.70
2018-07-22T00:43:06.139Z,19.80
2018-07-22T00:45:35.465Z,19.60
2018-07-22T00:48:04.934Z,19.30
2018-07-22T00:50:34.329Z,19.20
2018-07-22T00:53:03.703Z,19.40
2018-07-22T00:55:33.025Z,19.30
2018-07-22T00:58:02.389Z,19.30
2018-07-22T01:00:31.824Z,19.50
2018-07-22T01:03:01.182Z,19.60
2018-07-22T01:05:30.524Z,19.60
2018-07-22T01:07:59.871Z,19.50
2018-07-22T01:10:29.243Z,19.50
2018-07-22T01:12:58.630Z,19.60
2018-07-22T01:15:27.963Z,19.70
2018-07-22T01:17:57.440Z,19.80
2018-07-22T01:20:26.839Z,19.80
2018-07-22T01:22:56.292Z,19.70
2018-07-22T01:25:25.604Z,19.70
2018-07-22T01:27:54.964Z,19.70
2018-07-22T01:30:24.291Z,19.70
2018-07-22T01:32:53.622Z,19.60
2018-07-22T01:35:23.050Z,19.60
2018-07-22T01:37:52.382Z,19.50
2018-07-22T01:40:21.763Z,19.50
2018-07-22T01:42:51.115Z,19.60
2018-07-22T01:45:20.467Z,19.50
2018-07-22T01:47:49.791Z,19.70
2018-07-22T01:50:19.195Z,19.50
2018-07-22T01:52:48.516Z,19.40
2018-07-22T01:55:17.891Z,19.40
2018-07-22T01:57:47.228Z,19.50
2018-07-22T02:00:16.631Z,19.60
2018-07-22T02:02:45.955Z,19.50
2018-07-22T02:05:15.336Z,19.60
2018-07-22T02:07:44.718Z,19.70
2018-07-22T02:10:14.037Z,19.60
2018-07-22T02:12:43.409Z,19.50
2018-07-22T02:15:12.689Z,19.60
2018-07-22T02:17:41.985Z,19.60
2018-07-22T02:20:11.310Z,19.60
2018-07-22T02:22:40.712Z,19.60
2018-07-22T02:25:10.052Z,19.50
2018-07-22T02:27:39.754Z,19.50
2018-07-22T02:30:09.661Z,19.40
2018-07-22T02:35:08.045Z,19.50
2018-07-22T02:37:37.337Z,19.50
2018-07-22T02:40:06.669Z,19.50
2018-07-22T02:42:36.004Z,19.30
2018-07-22T02:45:05.343Z,19.40
2018-07-22T02:47:34.622Z,19.30
2018-07-22T02:50:04.199Z,19.30
2018-07-22T02:52:33.527Z,19.30
2018-07-22T02:55:02.822Z,19.30
2018-07-22T02:57:32.132Z,19.40
2018-07-22T03:00:01.488Z,19.40
2018-07-22T03:02:30.791Z,19.40
2018-07-22T03:05:00.119Z,19.40
2018-07-22T03:07:29.430Z,19.40
2018-07-22T03:09:58.766Z,19.50
2018-07-22T03:12:28.085Z,19.50
2018-07-22T03:14:57.470Z,19.40
2018-07-22T03:17:26.770Z,19.50
2018-07-22T03:19:56.169Z,19.50
2018-07-22T03:22:25.548Z,19.30
2018-07-22T03:24:54.897Z,19.20
2018-07-22T03:27:24.319Z,19.30
2018-07-22T03:29:53.710Z,19.20
2018-07-22T03:32:23.976Z,19.20
2018-07-22T03:34:53.348Z,19.20
2018-07-22T03:37:22.691Z,19.20
2018-07-22T03:39:52.016Z,19.30
2018-07-22T03:42:21.385Z,19.30
2018-07-22T03:44:50.681Z,19.30
2018-07-22T03:47:20.113Z,19.30
2018-07-22T03:49:49.434Z,19.40
2018-07-22T03:52:18.766Z,19.30
2018-07-22T03:54:48.120Z,19.30
2018-07-22T03:57:17.616Z,19.20
2018-07-22T03:59:47.049Z,19.10
2018-07-22T04:02:16.490Z,19.10
2018-07-22T04:04:45.869Z,19.00
2018-07-22T04:07:15.262Z,18.90
2018-07-22T04:09:44.606Z,18.90
2018-07-22T04:12:13.948Z,18.80
2018-07-22T04:14:43.281Z,18.80
2018-07-22T04:17:12.944Z,18.70
2018-07-22T04:19:42.286Z,18.60
2018-07-22T04:22:11.813Z,18.50
2018-07-22T04:24:41.194Z,18.70
2018-07-22T04:27:10.557Z,18.70
2018-07-22T04:29:40.004Z,18.60
2018-07-22T04:32:09.338Z,18.60
2018-07-22T04:34:38.661Z,18.50
2018-07-22T04:37:08.025Z,18.40
2018-07-22T04:39:37.349Z,18.50
2018-07-22T04:42:06.749Z,18.80
2018-07-22T04:44:36.128Z,18.90
2018-07-22T04:47:05.480Z,18.90
2018-07-22T04:49:34.795Z,19.00
2018-07-22T04:52:04.176Z,18.80
2018-07-22T04:54:33.510Z,18.50
2018-07-22T04:57:02.879Z,18.60
2018-07-22T04:59:32.311Z,18.70
2018-07-22T05:02:01.653Z,18.90
2018-07-22T05:04:31.034Z,19.10
2018-07-22T05:07:00.377Z,19.20
2018-07-22T05:09:29.705Z,19.30
2018-07-22T05:11:59.077Z,19.30
2018-07-22T05:14:28.388Z,19.30
2018-07-22T05:16:57.702Z,19.20
2018-07-22T05:19:27.044Z,19.10
2018-07-22T05:21:56.407Z,19.20
2018-07-22T05:24:25.801Z,19.10
2018-07-22T05:26:55.144Z,19.00
2018-07-22T05:29:24.550Z,18.70
2018-07-22T05:31:54.006Z,18.60
2018-07-22T05:34:23.349Z,18.30
2018-07-22T05:36:52.746Z,18.30
2018-07-22T05:39:22.082Z,18.60
2018-07-22T05:41:51.393Z,18.80
2018-07-22T05:44:20.779Z,18.90
2018-07-22T05:46:50.142Z,19.00
2018-07-22T05:49:19.472Z,19.10
2018-07-22T05:51:48.819Z,19.20
2018-07-22T05:54:18.219Z,19.10
2018-07-22T05:56:47.575Z,19.30
2018-07-22T05:59:16.919Z,19.30
2018-07-22T06:01:46.285Z,19.30
2018-07-22T06:04:15.633Z,19.40
2018-07-22T06:06:44.929Z,19.50
2018-07-22T06:09:14.318Z,19.60
2018-07-22T06:11:43.667Z,19.50
2018-07-22T06:14:12.976Z,19.70
2018-07-22T06:16:42.287Z,19.70
2018-07-22T06:19:11.679Z,19.50
2018-07-22T06:21:41.114Z,19.50
2018-07-22T06:24:10.531Z,19.30
2018-07-22T06:26:40.034Z,19.50
2018-07-22T06:29:09.514Z,19.50
2018-07-22T06:31:38.943Z,19.40
2018-07-22T06:34:08.374Z,19.50
2018-07-22T06:36:37.754Z,19.80
2018-07-22T06:39:09.605Z,19.80
2018-07-22T06:41:39.039Z,19.60
2018-07-22T06:44:08.429Z,19.50
2018-07-22T06:46:37.786Z,19.50
2018-07-22T06:49:07.550Z,19.50
2018-07-22T06:51:36.925Z,19.60
2018-07-22T06:54:07.469Z,19.80
2018-07-22T06:56:36.867Z,19.90
2018-07-22T06:59:06.292Z,20.00
2018-07-22T07:01:35.632Z,20.00
2018-07-22T07:04:05.048Z,19.90
2018-07-22T07:06:34.373Z,19.90
2018-07-22T07:09:04.514Z,19.90
2018-07-22T07:11:33.872Z,19.90
2018-07-22T07:14:03.221Z,19.90
2018-07-22T07:16:32.539Z,20.10
2018-07-22T07:19:02.888Z,20.10
2018-07-22T07:21:32.354Z,20.10
2018-07-22T07:24:01.775Z,20.20
2018-07-22T07:26:31.121Z,20.20
2018-07-22T07:29:00.531Z,20.10
2018-07-22T07:31:29.934Z,20.10
2018-07-22T07:33:59.281Z,19.90
2018-07-22T07:36:28.588Z,19.80
2018-07-22T07:38:57.937Z,19.70
2018-07-22T07:41:27.290Z,19.70
2018-07-22T07:43:56.665Z,19.80
2018-07-22T07:46:26.025Z,20.00
2018-07-22T07:48:55.353Z,20.10
2018-07-22T07:51:24.754Z,20.10
2018-07-22T07:53:54.165Z,20.20
2018-07-22T07:56:23.560Z,20.30
2018-07-22T07:58:52.867Z,20.40
2018-07-22T08:01:22.246Z,20.30
2018-07-22T08:03:51.656Z,20.40
2018-07-22T08:06:21.134Z,20.20
2018-07-22T08:08:50.531Z,20.10
2018-07-22T08:11:19.919Z,20.10
2018-07-22T08:13:49.229Z,20.10
2018-07-22T08:16:18.636Z,20.20
2018-07-22T08:18:48.029Z,20.50
2018-07-22T08:21:17.370Z,20.70
2018-07-22T08:23:46.759Z,20.50
2018-07-22T08:26:16.067Z,20.30
2018-07-22T08:29:06.630Z,20.60
2018-07-22T08:31:35.941Z,20.90
2018-07-22T08:34:05.348Z,21.00
2018-07-22T08:36:34.662Z,21.00
2018-07-22T08:39:05.510Z,21.20
2018-07-22T08:41:35.005Z,21.30
2018-07-22T08:46:33.180Z,21.30
2018-07-22T08:49:03.542Z,21.40
2018-07-22T08:51:33.366Z,21.50
2018-07-22T08:54:03.913Z,21.60
2018-07-22T08:56:33.713Z,21.60
2018-07-22T08:59:03.279Z,21.70
2018-07-22T09:01:32.541Z,21.40
2018-07-22T09:04:01.881Z,21.60
2018-07-22T09:06:32.013Z,21.50
2018-07-22T09:09:01.375Z,21.70
2018-07-22T09:11:30.685Z,21.70
2018-07-22T09:13:59.969Z,21.80
2018-07-22T09:16:29.272Z,22.00
2018-07-22T09:18:58.580Z,21.80
2018-07-22T09:23:56.917Z,22.30
2018-07-22T09:26:26.244Z,22.50
2018-07-22T09:28:55.615Z,22.70
2018-07-22T09:31:24.922Z,22.90
2018-07-22T09:33:54.242Z,22.90
2018-07-22T09:36:23.625Z,22.80
2018-07-22T09:38:52.917Z,22.80
2018-07-22T09:41:22.202Z,22.90
2018-07-22T09:43:51.511Z,23.00
2018-07-22T09:46:20.798Z,23.20
2018-07-22T09:48:50.118Z,23.10
2018-07-22T09:51:19.386Z,23.00
2018-07-22T09:53:48.741Z,22.90
2018-07-22T09:56:18.069Z,23.00
2018-07-22T09:58:47.424Z,23.00
2018-07-22T10:01:16.976Z,23.00
2018-07-22T10:03:46.325Z,22.90
2018-07-22T10:06:15.670Z,22.90
2018-07-22T10:08:44.966Z,22.30
2018-07-22T10:11:14.359Z,22.40
2018-07-22T10:13:43.713Z,21.40
2018-07-22T10:16:13.068Z,21.50
2018-07-22T10:18:42.454Z,21.50
2018-07-22T10:21:11.810Z,21.10
2018-07-22T10:23:41.169Z,20.90
2018-07-22T10:26:10.618Z,20.80
2018-07-22T10:28:40.048Z,20.70
2018-07-22T10:31:09.382Z,20.90
2018-07-22T10:33:38.789Z,21.10
2018-07-22T10:36:08.166Z,21.20
2018-07-22T10:38:37.574Z,21.40
2018-07-22T10:41:06.935Z,21.50
2018-07-22T10:43:36.254Z,21.50
2018-07-22T10:46:05.657Z,21.60
2018-07-22T10:48:34.961Z,21.60
2018-07-22T10:51:04.368Z,21.80
2018-07-22T10:53:33.624Z,21.80
2018-07-22T10:56:02.938Z,21.70
2018-07-22T11:01:01.153Z,21.50
2018-07-22T11:03:30.465Z,21.00
2018-07-22T11:05:59.859Z,20.80
2018-07-22T11:08:29.268Z,21.20
2018-07-22T11:11:05.033Z,21.10
2018-07-22T11:13:34.689Z,21.10
2018-07-22T11:16:04.034Z,21.50
2018-07-22T11:18:33.374Z,21.70
2018-07-22T11:21:02.767Z,21.90
2018-07-22T11:23:32.414Z,22.10
2018-07-22T11:26:02.781Z,22.20
2018-07-22T11:28:32.170Z,22.30
2018-07-22T11:31:01.464Z,22.30
2018-07-22T11:33:30.786Z,22.40
2018-07-22T11:36:00.199Z,22.60
2018-07-22T11:38:29.538Z,22.60
2018-07-22T11:40:58.849Z,22.80
2018-07-22T11:45:56.991Z,22.90
2018-07-22T11:48:26.280Z,22.80
2018-07-22T11:50:55.641Z,22.70
2018-07-22T11:53:24.933Z,22.90
2018-07-22T11:55:54.281Z,22.10
2018-07-22T11:58:23.593Z,22.70
2018-07-22T12:00:52.907Z,22.90
2018-07-22T12:03:22.220Z,23.10
2018-07-22T12:05:51.504Z,23.20
2018-07-22T12:08:20.840Z,22.40
2018-07-22T12:10:50.153Z,22.50
2018-07-22T12:13:19.425Z,22.50
2018-07-22T12:15:48.724Z,22.60
2018-07-22T12:18:18.070Z,22.40
2018-07-22T12:20:47.502Z,22.40
2018-07-22T12:23:16.861Z,22.40
2018-07-22T12:28:15.159Z,21.90
2018-07-22T12:30:44.419Z,21.80
2018-07-22T12:33:13.763Z,21.80
2018-07-22T12:35:43.059Z,21.70
2018-07-22T12:38:12.379Z,21.80
2018-07-22T12:40:41.673Z,21.90
2018-07-22T12:43:11.137Z,21.50
2018-07-22T12:45:40.495Z,21.60
2018-07-22T12:48:09.888Z,21.80
2018-07-22T12:50:39.533Z,21.80
2018-07-22T12:53:09.341Z,21.90
2018-07-22T12:55:38.976Z,22.10
2018-07-22T12:58:08.608Z,22.00
2018-07-22T13:00:38.001Z,22.20
2018-07-22T13:03:07.303Z,22.50
2018-07-22T13:05:37.196Z,22.40
2018-07-22T13:08:07.143Z,22.50
2018-07-22T13:10:36.441Z,22.50
2018-07-22T13:13:05.874Z,22.70
2018-07-22T13:15:35.365Z,22.60
2018-07-22T13:18:04.718Z,22.50
2018-07-22T13:20:34.107Z,22.70
2018-07-22T13:23:03.484Z,23.20
2018-07-22T13:25:32.944Z,23.40
2018-07-22T13:28:02.263Z,23.60
2018-07-22T13:30:31.605Z,23.70
2018-07-22T13:33:00.926Z,24.20
2018-07-22T13:35:30.292Z,24.40
2018-07-22T13:37:59.701Z,24.50
2018-07-22T13:40:28.996Z,25.00
2018-07-22T13:42:58.327Z,25.20
2018-07-22T13:45:27.751Z,25.50
2018-07-22T13:47:57.011Z,25.70
2018-07-22T13:50:26.381Z,25.70
2018-07-22T13:52:55.789Z,24.90
2018-07-22T13:55:25.102Z,24.70
2018-07-22T13:57:54.653Z,24.60
2018-07-22T14:00:24.154Z,24.50
2018-07-22T14:02:53.449Z,24.40
2018-07-22T14:05:22.847Z,24.10
2018-07-22T14:07:52.141Z,24.30
2018-07-22T14:10:21.533Z,24.70
2018-07-22T14:12:50.935Z,24.50
2018-07-22T14:15:20.352Z,24.40
2018-07-22T14:17:49.734Z,24.30
2018-07-22T14:20:19.149Z,24.40
2018-07-22T14:22:48.452Z,24.10
2018-07-22T14:25:17.757Z,24.30
2018-07-22T14:27:47.082Z,24.40
2018-07-22T14:30:16.398Z,24.10
2018-07-22T14:32:45.748Z,24.20
2018-07-22T14:35:15.062Z,24.20
2018-07-22T14:37:44.444Z,24.20
2018-07-22T14:40:13.779Z,24.10
2018-07-22T14:42:43.130Z,24.00
2018-07-22T14:45:12.482Z,24.00
2018-07-22T14:47:41.881Z,24.30
2018-07-22T14:50:11.306Z,24.40
2018-07-22T14:52:40.787Z,24.30
2018-07-22T14:55:10.197Z,24.40
2018-07-22T14:57:39.559Z,24.50
2018-07-22T15:00:09.193Z,24.60
2018-07-22T15:02:38.593Z,24.20
2018-07-22T15:05:07.957Z,24.10
2018-07-22T15:07:37.633Z,24.30
2018-07-22T15:10:06.970Z,24.60
2018-07-22T15:12:36.242Z,24.10
2018-07-22T15:15:05.690Z,24.20
2018-07-22T15:17:35.020Z,24.20
2018-07-22T15:20:04.778Z,24.20
2018-07-22T15:22:34.116Z,24.10
2018-07-22T15:25:03.472Z,24.20
2018-07-22T15:27:32.789Z,23.90
2018-07-22T15:30:02.126Z,24.00
2018-07-22T15:32:31.504Z,24.10
2018-07-22T15:35:00.889Z,24.10
2018-07-22T15:37:30.211Z,23.90
2018-07-22T15:39:59.597Z,23.70
2018-07-22T15:42:28.912Z,23.60
2018-07-22T15:44:58.217Z,23.80
2018-07-22T15:47:27.544Z,23.70
2018-07-22T15:49:56.820Z,23.40
2018-07-22T15:52:26.205Z,23.20
2018-07-22T15:54:55.601Z,23.40
2018-07-22T15:57:24.901Z,23.40
2018-07-22T16:02:23.114Z,23.20
2018-07-22T16:04:52.379Z,23.20
2018-07-22T16:07:21.765Z,23.10
2018-07-22T16:09:51.157Z,23.40
2018-07-22T16:12:20.517Z,23.20
2018-07-22T16:14:49.809Z,23.20
2018-07-22T16:17:19.182Z,23.20
2018-07-22T16:19:48.511Z,23.00
2018-07-22T16:22:17.831Z,23.20
2018-07-22T16:24:47.329Z,23.20
2018-07-22T16:27:16.608Z,23.20
2018-07-22T16:29:45.953Z,23.10
2018-07-22T16:32:15.240Z,23.00
2018-07-22T16:34:44.568Z,23.20
2018-07-22T16:37:13.881Z,23.20
2018-07-22T16:39:43.217Z,23.40
2018-07-22T16:42:12.574Z,23.20
2018-07-22T16:44:41.949Z,23.00
2018-07-22T16:47:11.265Z,23.00
2018-07-22T16:49:40.726Z,23.00
2018-07-22T16:52:10.149Z,23.00
2018-07-22T16:54:39.555Z,23.10
2018-07-22T16:57:09.019Z,23.30
2018-07-22T16:59:38.360Z,23.40
2018-07-22T17:02:07.714Z,22.90
2018-07-22T17:04:37.038Z,23.10
2018-07-22T17:07:06.363Z,23.20
2018-07-22T17:09:35.734Z,22.90
2018-07-22T17:12:05.119Z,22.70
2018-07-22T17:14:34.486Z,22.90
2018-07-22T17:17:03.815Z,23.10
2018-07-22T17:19:33.163Z,23.20
2018-07-22T17:22:02.508Z,23.10
2018-07-22T17:24:31.841Z,23.20
2018-07-22T17:27:01.184Z,23.10
2018-07-22T17:29:30.523Z,22.90
2018-07-22T17:31:59.949Z,22.90
2018-07-22T17:34:29.292Z,23.20
2018-07-22T17:36:58.896Z,22.90
2018-07-22T17:39:28.316Z,23.20
2018-07-22T17:41:57.762Z,23.20
2018-07-22T17:44:27.120Z,23.30
2018-07-22T17:46:56.525Z,23.40
2018-07-22T17:49:25.836Z,23.40
2018-07-22T17:51:55.276Z,23.20
2018-07-22T17:54:24.648Z,22.90
2018-07-22T17:56:53.954Z,22.90
2018-07-22T17:59:23.355Z,22.90
2018-07-22T18:01:52.774Z,22.90
2018-07-22T18:04:22.135Z,22.70
2018-07-22T18:06:51.567Z,22.80
2018-07-22T18:09:20.877Z,22.90
2018-07-22T18:11:50.196Z,22.60
2018-07-22T18:14:19.820Z,22.40
2018-07-22T18:16:49.170Z,22.50
2018-07-22T18:19:18.468Z,22.60
2018-07-22T18:21:47.800Z,22.70
2018-07-22T18:24:17.145Z,22.50
2018-07-22T18:26:46.419Z,22.40
2018-07-22T18:29:16.809Z,22.50
2018-07-22T18:31:46.167Z,22.60
2018-07-22T18:34:15.433Z,22.70
2018-07-22T18:36:44.755Z,22.50
2018-07-22T18:39:14.094Z,22.40
2018-07-22T18:41:43.428Z,22.60
2018-07-22T18:44:12.768Z,22.80
2018-07-22T18:46:43.097Z,22.90
2018-07-22T18:49:12.518Z,23.20
2018-07-22T18:51:41.801Z,23.00
2018-07-22T18:54:11.169Z,23.00
2018-07-22T18:56:40.554Z,23.00
2018-07-22T18:59:09.868Z,23.00
2018-07-22T19:01:39.304Z,23.00
2018-07-22T19:04:08.604Z,23.00
2018-07-22T19:06:37.905Z,23.10
2018-07-22T19:09:09.631Z,22.90
2018-07-22T19:11:38.926Z,22.90
2018-07-22T19:14:08.424Z,22.70
2018-07-22T19:16:37.809Z,22.70
2018-07-22T19:19:07.188Z,22.60
2018-07-22T19:21:36.510Z,22.60
2018-07-22T19:24:05.838Z,22.30
2018-07-22T19:26:35.157Z,22.40
2018-07-22T19:29:04.495Z,22.30
2018-07-22T19:31:33.913Z,21.80
2018-07-22T19:34:03.307Z,21.90
2018-07-22T19:36:32.624Z,21.90
2018-07-22T19:39:02.033Z,22.00
2018-07-22T19:41:31.409Z,22.00
2018-07-22T19:44:00.717Z,22.10
2018-07-22T19:46:30.035Z,22.10
2018-07-22T19:48:59.340Z,22.10
2018-07-22T19:51:28.681Z,22.00
2018-07-22T19:53:57.983Z,22.00
2018-07-22T19:56:27.310Z,22.00
2018-07-22T19:58:56.638Z,21.90
2018-07-22T20:01:26.058Z,21.90
2018-07-22T20:03:55.409Z,21.80
2018-07-22T20:06:24.800Z,21.70
2018-07-22T20:08:54.113Z,21.50
2018-07-22T20:11:23.542Z,21.60
2018-07-22T20:13:52.848Z,21.70
2018-07-22T20:16:22.153Z,21.80
2018-07-22T20:18:51.424Z,21.80
2018-07-22T20:21:20.825Z,21.60
2018-07-22T20:23:50.158Z,21.60
2018-07-22T20:26:19.478Z,21.50
2018-07-22T20:28:48.777Z,21.40
2018-07-22T20:31:18.230Z,21.50
2018-07-22T20:33:47.533Z,21.50
2018-07-22T20:36:16.877Z,21.40
2018-07-22T20:38:46.509Z,21.30
2018-07-22T20:41:15.903Z,21.40
2018-07-22T20:43:45.274Z,21.40
2018-07-22T20:46:14.652Z,21.30
2018-07-22T20:48:43.958Z,21.30
2018-07-22T20:51:13.285Z,21.10
2018-07-22T20:53:42.596Z,20.90
2018-07-22T20:56:11.956Z,21.00
2018-07-22T20:58:41.420Z,21.00
2018-07-22T21:01:10.806Z,21.00
2018-07-22T21:03:40.208Z,21.10
2018-07-22T21:06:09.540Z,21.00
2018-07-22T21:08:38.893Z,21.10
2018-07-22T21:11:08.200Z,21.10
2018-07-22T21:13:37.582Z,21.10
2018-07-22T21:16:06.982Z,21.00
2018-07-22T21:21:05.737Z,21.00
2018-07-22T21:23:35.026Z,20.70
2018-07-22T21:26:04.394Z,20.60
2018-07-22T21:28:33.821Z,20.70
2018-07-22T21:31:03.132Z,20.50
2018-07-22T21:33:32.521Z,20.50
2018-07-22T21:36:01.843Z,20.60
2018-07-22T21:38:31.255Z,20.60
2018-07-22T21:41:00.556Z,20.60
2018-07-22T21:43:29.884Z,20.50
2018-07-22T21:45:59.192Z,20.50
2018-07-22T21:48:28.654Z,20.40
2018-07-22T21:50:57.984Z,20.30
2018-07-22T21:53:27.311Z,20.30
2018-07-22T21:55:56.625Z,20.10
2018-07-22T21:58:25.981Z,19.90
2018-07-22T22:00:55.425Z,19.90
2018-07-22T22:03:24.763Z,20.00
2018-07-22T22:08:23.037Z,20.20
2018-07-22T22:10:52.405Z,20.20
2018-07-22T22:13:21.713Z,20.20
2018-07-22T22:15:51.081Z,20.20
2018-07-22T22:18:20.419Z,20.20
2018-07-22T22:20:49.750Z,20.10
2018-07-22T22:23:19.067Z,19.90
2018-07-22T22:25:48.412Z,19.90
2018-07-22T22:28:17.775Z,19.80
2018-07-22T22:30:47.165Z,19.80
2018-07-22T22:33:16.499Z,19.80
2018-07-22T22:35:45.856Z,19.80
2018-07-22T22:38:15.202Z,19.90
2018-07-22T22:40:44.566Z,19.80
2018-07-22T22:43:13.925Z,19.60
2018-07-22T22:45:43.249Z,19.70
2018-07-22T22:48:12.659Z,19.70
2018-07-22T22:50:41.957Z,19.70
2018-07-22T22:53:11.350Z,19.50
2018-07-22T22:55:40.743Z,19.60
2018-07-22T22:58:21.357Z,19.80
2018-07-22T23:00:50.709Z,19.90
2018-07-22T23:03:20.047Z,19.90
2018-07-22T23:05:49.364Z,19.90
2018-07-22T23:08:18.693Z,19.90
2018-07-22T23:10:47.997Z,19.80
2018-07-22T23:13:17.322Z,19.70
2018-07-22T23:15:46.778Z,19.80
2018-07-22T23:18:16.105Z,19.90
2018-07-22T23:20:45.405Z,19.90
2018-07-22T23:23:14.697Z,19.80
2018-07-22T23:28:12.920Z,19.80
2018-07-22T23:30:42.222Z,19.90
2018-07-22T23:33:11.532Z,19.90
2018-07-22T23:35:40.835Z,19.90
2018-07-22T23:38:10.152Z,19.80
2018-07-22T23:40:39.612Z,19.70
2018-07-22T23:43:08.933Z,19.70
2018-07-22T23:45:38.277Z,19.70
2018-07-22T23:48:07.616Z,19.70
2018-07-22T23:50:36.912Z,19.50
2018-07-22T23:53:06.561Z,19.60
2018-07-22T23:55:35.907Z,19.70
